createdAt,value
2023-03-11T00:00:18.606Z,39.71
2023-03-11T00:02:46.170Z,39.88
2023-03-11T00:05:16.399Z,39.85
2023-03-11T00:07:42.906Z,40.00
2023-03-11T00:10:13.527Z,39.81
2023-03-11T00:12:40.106Z,39.68
2023-03-11T00:15:06.704Z,39.83
2023-03-11T00:17:33.120Z,39.89
2023-03-11T00:19:59.564Z,39.84
2023-03-11T00:22:25.981Z,39.75
2023-03-11T00:24:52.466Z,39.65
2023-03-11T00:27:18.880Z,39.66
2023-03-11T00:29:45.448Z,39.87
2023-03-11T00:32:12.226Z,39.78
2023-03-11T00:34:47.264Z,39.89
2023-03-11T00:37:13.750Z,39.69
2023-03-11T00:39:40.288Z,39.75
2023-03-11T00:42:07.774Z,39.66
2023-03-11T00:44:34.170Z,39.66
2023-03-11T00:47:00.563Z,39.60
2023-03-11T00:49:27.077Z,39.65
2023-03-11T00:51:53.563Z,39.59
2023-03-11T00:54:19.993Z,39.47
2023-03-11T00:56:46.468Z,39.39
2023-03-11T00:59:13.028Z,39.68
2023-03-11T01:01:39.569Z,39.42
2023-03-11T01:04:06.232Z,39.51
2023-03-11T01:06:44.474Z,39.52
2023-03-11T01:09:11.788Z,39.40
2023-03-11T01:11:38.289Z,39.39
2023-03-11T01:14:04.762Z,39.60
2023-03-11T01:16:31.148Z,39.67
2023-03-11T01:18:57.615Z,39.76
2023-03-11T01:21:24.053Z,39.53
2023-03-11T01:23:50.492Z,39.45
2023-03-11T01:26:16.970Z,39.39
2023-03-11T01:28:43.524Z,39.53
2023-03-11T01:31:10.544Z,39.56
2023-03-11T01:33:36.981Z,39.67
2023-03-11T01:36:03.892Z,39.48
2023-03-11T01:38:30.366Z,39.52
2023-03-11T01:40:56.848Z,39.59
2023-03-11T01:43:55.867Z,39.61
2023-03-11T01:46:25.397Z,39.72
2023-03-11T01:48:58.919Z,39.72
2023-03-11T01:51:31.445Z,39.64
2023-03-11T01:53:59.411Z,39.63
2023-03-11T01:56:25.823Z,39.64
2023-03-11T01:58:53.942Z,39.77
2023-03-11T02:01:21.271Z,39.60
2023-03-11T02:03:47.880Z,39.74
2023-03-11T02:06:15.955Z,39.51
2023-03-11T02:08:43.750Z,39.45
2023-03-11T02:11:12.177Z,39.46
2023-03-11T02:13:40.768Z,39.44
2023-03-11T02:16:07.747Z,39.54
2023-03-11T02:18:34.220Z,39.37
2023-03-11T02:21:00.566Z,39.45
2023-03-11T02:23:30.608Z,39.35
2023-03-11T02:25:57.017Z,39.55
2023-03-11T02:28:24.154Z,39.29
2023-03-11T02:30:50.741Z,39.59
2023-03-11T02:33:18.693Z,39.38
2023-03-11T02:35:45.115Z,39.35
2023-03-11T02:38:11.625Z,39.50
2023-03-11T02:40:41.648Z,39.49
2023-03-11T02:43:10.542Z,39.42
2023-03-11T02:45:39.976Z,39.49
2023-03-11T02:48:07.396Z,39.38
2023-03-11T02:50:37.019Z,39.22
2023-03-11T02:53:04.507Z,39.24
2023-03-11T02:55:31.039Z,39.27
2023-03-11T02:57:57.569Z,39.32
2023-03-11T03:00:24.962Z,39.59
2023-03-11T03:02:52.383Z,39.50
2023-03-11T03:05:20.694Z,39.56
2023-03-11T03:07:48.087Z,39.35
2023-03-11T03:10:15.779Z,39.27
2023-03-11T03:12:42.583Z,39.42
2023-03-11T03:15:09.238Z,39.43
2023-03-11T03:17:35.748Z,39.18
2023-03-11T03:20:03.069Z,39.45
2023-03-11T03:22:30.081Z,39.34
2023-03-11T03:24:56.449Z,39.26
2023-03-11T03:27:22.845Z,39.12
2023-03-11T03:29:49.373Z,39.26
2023-03-11T03:32:15.799Z,38.97
2023-03-11T03:34:42.269Z,39.26
2023-03-11T03:37:08.707Z,39.10
2023-03-11T03:39:35.144Z,39.08
2023-03-11T03:42:01.626Z,39.26
2023-03-11T03:44:28.096Z,39.29
2023-03-11T03:46:54.508Z,39.29
2023-03-11T03:49:20.916Z,39.34
2023-03-11T03:51:47.292Z,39.28
2023-03-11T03:54:14.894Z,39.26
2023-03-11T03:56:41.423Z,39.37
2023-03-11T03:59:07.798Z,39.39
2023-03-11T04:01:34.206Z,39.43
2023-03-11T04:04:00.627Z,39.19
2023-03-11T04:06:27.440Z,39.04
2023-03-11T04:08:54.552Z,39.24
2023-03-11T04:11:21.226Z,39.08
2023-03-11T04:13:48.023Z,39.03
2023-03-11T04:16:21.845Z,39.17
2023-03-11T04:18:48.751Z,39.03
2023-03-11T04:21:15.207Z,39.12
2023-03-11T04:23:41.597Z,38.93
2023-03-11T04:26:08.152Z,38.85
2023-03-11T04:28:34.623Z,38.87
2023-03-11T04:31:01.055Z,38.97
2023-03-11T04:33:27.566Z,39.01
2023-03-11T04:35:54.031Z,38.84
2023-03-11T04:38:20.448Z,38.97
2023-03-11T04:40:46.855Z,38.96
2023-03-11T04:43:13.256Z,38.80
2023-03-11T04:45:40.220Z,38.69
2023-03-11T04:48:06.650Z,38.85
2023-03-11T04:50:33.088Z,38.82
2023-03-11T04:52:59.677Z,38.83
2023-03-11T04:55:26.176Z,38.83
2023-03-11T04:57:52.613Z,38.92
2023-03-11T05:00:22.996Z,39.00
2023-03-11T05:02:49.425Z,39.08
2023-03-11T05:05:16.560Z,38.92
2023-03-11T05:07:42.956Z,38.62
2023-03-11T05:10:09.828Z,38.95
2023-03-11T05:12:42.000Z,39.06
2023-03-11T05:15:08.652Z,38.64
2023-03-11T05:17:37.267Z,38.80
2023-03-11T05:20:07.433Z,38.98
2023-03-11T05:22:37.525Z,38.83
2023-03-11T05:25:10.450Z,38.93
2023-03-11T05:27:36.867Z,38.75
2023-03-11T05:30:03.836Z,38.69
2023-03-11T05:32:30.244Z,38.70
2023-03-11T05:34:56.717Z,38.52
2023-03-11T05:37:23.157Z,38.35
2023-03-11T05:39:49.554Z,38.52
2023-03-11T05:42:15.980Z,38.61
2023-03-11T05:44:42.491Z,38.33
2023-03-11T05:47:08.930Z,38.45
2023-03-11T05:49:35.505Z,38.33
2023-03-11T05:52:01.930Z,38.52
2023-03-11T05:54:28.333Z,38.42
2023-03-11T05:56:55.899Z,38.29
2023-03-11T05:59:22.580Z,38.39
2023-03-11T06:01:48.977Z,38.52
2023-03-11T06:04:15.486Z,38.34
2023-03-11T06:06:42.129Z,38.48
2023-03-11T06:09:13.357Z,38.34
2023-03-11T06:11:39.830Z,38.46
2023-03-11T06:14:06.475Z,38.49
2023-03-11T06:16:32.961Z,38.61
2023-03-11T06:19:02.549Z,38.97
2023-03-11T06:21:29.018Z,38.18
2023-03-11T06:23:55.458Z,37.89
2023-03-11T06:26:23.249Z,37.41
2023-03-11T06:28:50.381Z,36.92
2023-03-11T06:31:21.865Z,36.83
2023-03-11T06:33:48.869Z,36.43
2023-03-11T06:36:16.604Z,35.89
2023-03-11T06:38:43.340Z,35.65
2023-03-11T06:41:10.335Z,36.54
2023-03-11T06:43:36.881Z,37.19
2023-03-11T06:46:08.683Z,37.44
2023-03-11T06:48:35.141Z,37.58
2023-03-11T06:51:01.674Z,37.76
2023-03-11T06:53:29.198Z,38.07
2023-03-11T06:55:59.781Z,38.11
2023-03-11T06:58:26.227Z,38.16
2023-03-11T07:00:52.844Z,38.23
2023-03-11T07:03:19.400Z,38.19
2023-03-11T07:05:45.923Z,38.18
2023-03-11T07:08:12.403Z,38.30
2023-03-11T07:10:38.846Z,38.16
2023-03-11T07:13:05.317Z,38.17
2023-03-11T07:15:31.764Z,38.36
2023-03-11T07:17:58.315Z,38.28
2023-03-11T07:20:24.846Z,38.36
2023-03-11T07:22:51.348Z,38.46
2023-03-11T07:25:17.934Z,38.50
2023-03-11T07:27:44.552Z,38.52
2023-03-11T07:30:11.362Z,38.55
2023-03-11T07:32:37.855Z,38.52
2023-03-11T07:35:04.560Z,38.48
2023-03-11T07:37:31.057Z,38.37
2023-03-11T07:39:57.501Z,38.54
2023-03-11T07:42:23.884Z,38.59
2023-03-11T07:44:51.483Z,38.42
2023-03-11T07:47:18.262Z,38.62
2023-03-11T07:49:44.749Z,38.54
2023-03-11T07:52:11.147Z,38.67
2023-03-11T07:54:37.615Z,38.62
2023-03-11T07:57:04.023Z,38.74
2023-03-11T07:59:30.569Z,38.70
2023-03-11T08:01:57.149Z,38.75
2023-03-11T08:04:23.561Z,38.75
2023-03-11T08:06:50.103Z,38.67
2023-03-11T08:09:16.552Z,38.71
2023-03-11T08:11:43.039Z,38.72
2023-03-11T08:14:09.899Z,38.80
2023-03-11T08:16:36.422Z,38.74
2023-03-11T08:19:02.933Z,38.82
2023-03-11T08:21:31.936Z,38.79
2023-03-11T08:23:59.293Z,38.92
2023-03-11T08:26:26.214Z,38.83
2023-03-11T08:28:52.678Z,38.81
2023-03-11T08:31:24.198Z,38.83
2023-03-11T08:33:51.628Z,38.84
2023-03-11T08:36:18.729Z,38.78
2023-03-11T08:38:45.157Z,38.83
2023-03-11T08:41:11.745Z,38.83
2023-03-11T08:43:38.287Z,38.85
2023-03-11T08:46:06.785Z,38.73
2023-03-11T08:48:33.832Z,38.80
2023-03-11T08:51:00.328Z,38.83
2023-03-11T08:53:26.776Z,38.89
2023-03-11T08:55:53.290Z,38.91
2023-03-11T08:58:20.272Z,38.81
2023-03-11T09:00:46.742Z,38.82
2023-03-11T09:03:13.719Z,38.80
2023-03-11T09:05:40.264Z,38.75
2023-03-11T09:08:06.792Z,38.84
2023-03-11T09:10:33.267Z,38.82
2023-03-11T09:12:59.656Z,38.86
2023-03-11T09:15:26.051Z,38.78
2023-03-11T09:17:53.130Z,38.76
2023-03-11T09:20:19.811Z,38.81
2023-03-11T09:22:46.239Z,38.83
2023-03-11T09:25:14.987Z,38.77
2023-03-11T09:27:41.622Z,38.74
2023-03-11T09:30:09.164Z,38.76
2023-03-11T09:32:35.608Z,38.81
2023-03-11T09:35:02.061Z,38.64
2023-03-11T09:37:30.267Z,38.74
2023-03-11T09:39:56.689Z,38.72
2023-03-11T09:42:29.316Z,38.76
2023-03-11T09:45:11.270Z,38.68
2023-03-11T09:47:47.098Z,38.63
2023-03-11T09:50:22.848Z,38.72
2023-03-11T09:52:53.499Z,38.77
2023-03-11T09:55:32.229Z,38.77
2023-03-11T09:58:00.508Z,38.66
2023-03-11T10:00:26.976Z,38.76
2023-03-11T10:02:53.803Z,38.71
2023-03-11T10:05:25.812Z,38.70
2023-03-11T10:08:02.582Z,38.69
2023-03-11T10:10:31.037Z,38.73
2023-03-11T10:12:57.413Z,38.67
2023-03-11T10:15:41.764Z,38.70
2023-03-11T10:18:23.420Z,38.68
2023-03-11T10:21:08.922Z,38.70
2023-03-11T10:23:47.986Z,38.72
2023-03-11T10:26:26.231Z,38.75
2023-03-11T10:28:56.214Z,38.69
2023-03-11T10:31:27.714Z,38.81
2023-03-11T10:33:59.642Z,38.76
2023-03-11T10:36:29.652Z,38.71
2023-03-11T10:38:56.389Z,38.74
2023-03-11T10:41:22.751Z,38.75
2023-03-11T10:43:54.596Z,38.68
2023-03-11T10:46:24.355Z,38.74
2023-03-11T10:48:50.813Z,38.74
2023-03-11T10:51:22.750Z,38.77
2023-03-11T10:53:50.864Z,38.69
2023-03-11T10:56:28.475Z,38.71
2023-03-11T10:58:55.162Z,38.70
2023-03-11T11:01:22.074Z,38.68
2023-03-11T11:03:50.333Z,38.63
2023-03-11T11:06:26.522Z,38.67
2023-03-11T11:09:11.764Z,38.71
2023-03-11T11:11:39.546Z,38.74
2023-03-11T11:14:06.067Z,38.70
2023-03-11T11:16:34.451Z,38.73
2023-03-11T11:19:00.913Z,38.81
2023-03-11T11:21:38.275Z,38.72
2023-03-11T11:24:16.940Z,38.82
2023-03-11T11:27:02.387Z,38.72
2023-03-11T11:29:28.813Z,38.77
2023-03-11T11:32:10.179Z,38.71
2023-03-11T11:34:36.683Z,38.80
2023-03-11T11:37:04.731Z,38.75
2023-03-11T11:39:36.307Z,38.72
2023-03-11T11:42:03.098Z,38.77
2023-03-11T11:44:33.941Z,38.76
2023-03-11T11:47:18.496Z,38.74
2023-03-11T11:49:50.684Z,38.82
2023-03-11T11:52:45.112Z,38.83
2023-03-11T11:55:17.841Z,38.91
2023-03-11T11:57:44.311Z,38.79
2023-03-11T12:00:31.165Z,38.87
2023-03-11T12:03:16.445Z,38.81
2023-03-11T12:05:52.766Z,38.91
2023-03-11T12:08:30.774Z,38.79
2023-03-11T12:10:57.147Z,38.83
2023-03-11T12:13:35.718Z,38.84
2023-03-11T12:16:05.290Z,38.85
2023-03-11T12:18:35.547Z,38.81
2023-03-11T12:21:08.359Z,38.78
2023-03-11T12:23:37.548Z,38.90
2023-03-11T12:26:27.746Z,38.83
2023-03-11T12:28:54.343Z,38.80
2023-03-11T12:31:21.590Z,38.79
2023-03-11T12:33:55.865Z,38.80
2023-03-11T12:36:39.564Z,38.86
2023-03-11T12:39:07.663Z,38.79
2023-03-11T12:41:42.793Z,38.92
2023-03-11T12:44:21.680Z,38.87
2023-03-11T12:46:54.504Z,38.88
2023-03-11T12:49:25.210Z,38.98
2023-03-11T12:52:01.037Z,38.95
2023-03-11T12:54:31.994Z,39.00
2023-03-11T12:57:02.990Z,38.99
2023-03-11T12:59:41.804Z,39.05
2023-03-11T13:02:27.023Z,39.10
2023-03-11T13:05:05.170Z,39.02
2023-03-11T13:07:41.891Z,39.04
2023-03-11T13:10:08.296Z,39.09
2023-03-11T13:12:45.364Z,38.99
2023-03-11T13:15:35.391Z,39.08
2023-03-11T13:18:25.038Z,39.20
2023-03-11T13:20:56.049Z,39.04
2023-03-11T13:23:22.496Z,39.17
2023-03-11T13:25:51.931Z,39.19
2023-03-11T13:28:37.216Z,39.15
2023-03-11T13:31:22.629Z,39.12
2023-03-11T13:33:51.355Z,39.21
2023-03-11T13:36:36.539Z,39.18
2023-03-11T13:39:07.832Z,39.21
2023-03-11T13:41:36.043Z,39.23
2023-03-11T13:44:11.565Z,39.20
2023-03-11T13:46:40.151Z,39.21
2023-03-11T13:49:09.319Z,39.22
2023-03-11T13:51:41.039Z,39.25
2023-03-11T13:54:20.053Z,39.20
2023-03-11T13:56:49.260Z,39.26
2023-03-11T13:59:23.701Z,39.23
2023-03-11T14:01:54.985Z,39.25
2023-03-11T14:04:29.762Z,39.23
2023-03-11T14:06:56.247Z,39.30
2023-03-11T14:09:24.116Z,39.25
2023-03-11T14:11:52.516Z,39.28
2023-03-11T14:14:30.252Z,39.32
2023-03-11T14:16:57.293Z,39.29
2023-03-11T14:19:23.816Z,39.38
2023-03-11T14:21:55.297Z,39.29
2023-03-11T14:24:31.111Z,39.30
2023-03-11T14:26:59.252Z,39.33
2023-03-11T14:29:34.847Z,39.33
2023-03-11T14:32:15.343Z,39.30
2023-03-11T14:34:41.774Z,39.33
2023-03-11T14:37:23.412Z,39.41
2023-03-11T14:39:53.410Z,39.34
2023-03-11T14:42:39.989Z,39.36
2023-03-11T14:45:16.250Z,39.34
2023-03-11T14:47:42.673Z,39.31
2023-03-11T14:50:28.246Z,39.44
2023-03-11T14:53:04.884Z,39.41
2023-03-11T14:55:43.099Z,39.42
2023-03-11T14:58:12.321Z,39.28
2023-03-11T15:00:42.035Z,39.37
2023-03-11T15:03:12.737Z,39.29
2023-03-11T15:05:57.862Z,39.49
2023-03-11T15:08:27.039Z,39.30
2023-03-11T15:11:07.309Z,39.33
2023-03-11T15:13:34.093Z,39.32
2023-03-11T15:16:02.290Z,39.40
2023-03-11T15:18:32.104Z,39.34
2023-03-11T15:21:02.948Z,39.34
2023-03-11T15:23:29.497Z,39.43
2023-03-11T15:25:55.920Z,39.34
2023-03-11T15:28:27.991Z,39.32
2023-03-11T15:31:12.973Z,39.41
2023-03-11T15:33:39.997Z,39.39
2023-03-11T15:36:06.581Z,39.32
2023-03-11T15:38:33.047Z,39.46
2023-03-11T15:41:03.815Z,39.41
2023-03-11T15:43:34.093Z,39.50
2023-03-11T15:46:02.204Z,39.46
2023-03-11T15:48:29.956Z,39.32
2023-03-11T15:50:57.760Z,39.42
2023-03-11T15:53:25.267Z,39.46
2023-03-11T15:55:52.335Z,39.38
2023-03-11T15:58:20.414Z,39.46
2023-03-11T16:00:51.865Z,39.40
2023-03-11T16:03:19.165Z,39.43
2023-03-11T16:05:45.824Z,39.46
2023-03-11T16:08:12.341Z,39.38
2023-03-11T16:10:39.429Z,39.41
2023-03-11T16:13:06.202Z,39.39
2023-03-11T16:15:35.185Z,39.56
2023-03-11T16:18:02.719Z,39.44
2023-03-11T16:20:33.492Z,39.41
2023-03-11T16:23:01.568Z,39.49
2023-03-11T16:25:30.713Z,39.64
2023-03-11T16:27:57.618Z,39.60
2023-03-11T16:30:24.887Z,39.54
2023-03-11T16:32:51.345Z,39.47
2023-03-11T16:35:18.532Z,39.45
2023-03-11T16:37:47.635Z,39.48
2023-03-11T16:40:16.015Z,39.47
2023-03-11T16:42:43.686Z,39.42
2023-03-11T16:45:14.272Z,39.39
2023-03-11T16:47:40.997Z,39.39
2023-03-11T16:50:07.994Z,39.44
2023-03-11T16:52:34.572Z,39.39
2023-03-11T16:55:01.089Z,39.60
2023-03-11T16:57:27.546Z,39.57
2023-03-11T16:59:53.949Z,39.59
2023-03-11T17:02:21.102Z,39.67
2023-03-11T17:04:48.578Z,39.60
2023-03-11T17:07:15.087Z,39.68
2023-03-11T17:09:41.577Z,39.69
2023-03-11T17:12:08.440Z,39.79
2023-03-11T17:14:35.839Z,39.74
2023-03-11T17:17:02.328Z,39.77
2023-03-11T17:19:30.668Z,39.84
2023-03-11T17:21:57.661Z,39.67
2023-03-11T17:24:24.063Z,39.74
2023-03-11T17:26:50.477Z,39.69
2023-03-11T17:29:19.233Z,39.65
2023-03-11T17:31:45.750Z,39.69
2023-03-11T17:34:12.247Z,39.61
2023-03-11T17:36:38.708Z,39.58
2023-03-11T17:39:05.092Z,39.69
2023-03-11T17:41:31.645Z,39.62
2023-03-11T17:43:58.081Z,39.69
2023-03-11T17:46:24.674Z,39.75
2023-03-11T17:48:52.083Z,39.79
2023-03-11T17:51:19.969Z,39.76
2023-03-11T17:53:47.055Z,39.77
2023-03-11T17:56:14.632Z,39.77
2023-03-11T17:58:41.113Z,39.71
2023-03-11T18:01:09.200Z,39.72
2023-03-11T18:03:35.738Z,39.84
2023-03-11T18:06:04.065Z,39.87
2023-03-11T18:08:30.884Z,39.89
2023-03-11T18:11:02.046Z,39.84
2023-03-11T18:13:28.971Z,39.76
2023-03-11T18:16:02.863Z,39.78
2023-03-11T18:18:30.376Z,39.78
2023-03-11T18:21:23.287Z,39.87
2023-03-11T18:23:52.151Z,39.91
2023-03-11T18:26:18.858Z,39.82
2023-03-11T18:28:45.722Z,39.79
2023-03-11T18:31:16.912Z,39.89
2023-03-11T18:33:47.355Z,39.83
2023-03-11T18:36:15.607Z,39.83
2023-03-11T18:38:42.312Z,39.86
2023-03-11T18:41:08.915Z,39.91
2023-03-11T18:43:35.414Z,39.81
2023-03-11T18:46:01.953Z,39.87
2023-03-11T18:48:28.404Z,39.89
2023-03-11T18:50:55.564Z,39.79
2023-03-11T18:53:24.877Z,39.84
2023-03-11T18:55:52.335Z,39.83
2023-03-11T18:58:19.336Z,39.90
2023-03-11T19:00:45.965Z,39.83
2023-03-11T19:03:12.633Z,39.88
2023-03-11T19:05:39.003Z,39.95
2023-03-11T19:08:05.614Z,39.86
2023-03-11T19:10:32.130Z,40.01
2023-03-11T19:12:58.568Z,39.84
2023-03-11T19:15:25.022Z,39.90
2023-03-11T19:18:04.349Z,39.88
2023-03-11T19:20:33.065Z,39.97
2023-03-11T19:22:59.510Z,39.88
2023-03-11T19:25:27.884Z,40.01
2023-03-11T19:27:55.013Z,39.91
2023-03-11T19:30:21.835Z,40.00
2023-03-11T19:32:52.569Z,40.00
2023-03-11T19:35:20.959Z,39.99
2023-03-11T19:37:48.005Z,40.10
2023-03-11T19:40:15.229Z,40.05
2023-03-11T19:42:41.764Z,39.95
2023-03-11T19:45:08.501Z,40.07
2023-03-11T19:47:34.957Z,40.11
2023-03-11T19:50:01.495Z,40.07
2023-03-11T19:52:27.902Z,40.08
2023-03-11T19:54:54.291Z,40.05
2023-03-11T19:57:20.843Z,39.98
2023-03-11T19:59:47.256Z,40.03
2023-03-11T20:02:13.937Z,40.04
2023-03-11T20:04:43.054Z,40.07
2023-03-11T20:07:09.797Z,40.07
2023-03-11T20:09:36.303Z,40.12
2023-03-11T20:12:02.788Z,40.24
2023-03-11T20:14:29.382Z,40.13
2023-03-11T20:16:55.878Z,40.10
2023-03-11T20:19:22.479Z,40.09
2023-03-11T20:21:50.520Z,40.08
2023-03-11T20:24:17.062Z,40.12
2023-03-11T20:26:43.585Z,40.04
2023-03-11T20:29:10.140Z,40.08
2023-03-11T20:31:37.163Z,40.15
2023-03-11T20:34:03.842Z,40.08
2023-03-11T20:36:32.724Z,40.11
2023-03-11T20:38:59.337Z,40.11
2023-03-11T20:44:16.445Z,40.19
2023-03-11T20:46:45.461Z,40.07
2023-03-11T20:49:12.117Z,40.14
2023-03-11T20:51:41.378Z,40.29
2023-03-11T20:54:08.404Z,40.09
2023-03-11T20:56:37.726Z,40.15
2023-03-11T20:59:07.062Z,40.19
2023-03-11T21:01:35.008Z,40.19
2023-03-11T21:04:05.684Z,40.20
2023-03-11T21:06:33.822Z,40.12
2023-03-11T21:09:01.700Z,40.17
2023-03-11T21:11:28.718Z,40.09
2023-03-11T21:13:55.530Z,40.25
2023-03-11T21:16:22.169Z,40.23
2023-03-11T21:18:49.624Z,40.16
2023-03-11T21:21:17.245Z,40.10
2023-03-11T21:23:44.039Z,40.28
2023-03-11T21:26:14.598Z,40.09
2023-03-11T21:28:42.305Z,40.16
2023-03-11T21:31:19.644Z,40.28
2023-03-11T21:33:46.605Z,40.18
2023-03-11T21:36:13.793Z,40.19
2023-03-11T21:38:40.717Z,40.13
2023-03-11T21:41:12.924Z,40.15
2023-03-11T21:43:41.871Z,40.21
2023-03-11T21:46:22.191Z,40.25
2023-03-11T21:48:49.002Z,40.16
2023-03-11T21:51:16.516Z,40.16
2023-03-11T21:53:43.191Z,40.18
2023-03-11T21:56:10.028Z,40.18
2023-03-11T21:58:37.132Z,40.14
2023-03-11T22:01:03.867Z,40.28
2023-03-11T22:03:31.158Z,40.26
2023-03-11T22:05:58.796Z,40.23
2023-03-11T22:08:25.445Z,40.26
2023-03-11T22:10:51.983Z,40.18
2023-03-11T22:13:18.776Z,40.30
2023-03-11T22:15:45.442Z,40.23
2023-03-11T22:18:12.132Z,40.24
2023-03-11T22:20:42.276Z,40.17
2023-03-11T22:23:09.536Z,40.23
2023-03-11T22:25:36.009Z,40.13
2023-03-11T22:28:02.531Z,40.29
2023-03-11T22:30:32.000Z,40.14
2023-03-11T22:32:58.437Z,40.31
2023-03-11T22:35:25.189Z,40.27
2023-03-11T22:37:51.587Z,40.20
2023-03-11T22:40:18.028Z,40.20
2023-03-11T22:42:44.481Z,40.34
2023-03-11T22:45:11.205Z,40.24
2023-03-11T22:47:37.610Z,40.28
2023-03-11T22:50:04.145Z,40.34
2023-03-11T22:52:30.680Z,40.21
2023-03-11T22:54:57.297Z,40.32
2023-03-11T22:57:23.855Z,40.22
2023-03-11T22:59:50.286Z,40.20
2023-03-11T23:02:16.678Z,39.67
2023-03-11T23:04:46.223Z,39.37
2023-03-11T23:07:12.683Z,39.26
2023-03-11T23:09:39.258Z,39.16
2023-03-11T23:12:06.953Z,38.97
2023-03-11T23:14:44.558Z,38.97
2023-03-11T23:17:11.561Z,38.78
2023-03-11T23:19:38.159Z,38.70
2023-03-11T23:22:04.648Z,38.70
2023-03-11T23:24:31.097Z,38.63
2023-03-11T23:26:57.552Z,38.57
2023-03-11T23:29:24.044Z,38.52
2023-03-11T23:31:50.447Z,38.43
2023-03-11T23:34:16.912Z,38.48
2023-03-11T23:36:43.324Z,38.12
2023-03-11T23:39:09.740Z,38.36
2023-03-11T23:41:37.873Z,38.46
2023-03-11T23:44:04.695Z,38.32
2023-03-11T23:46:31.394Z,38.40
2023-03-11T23:48:58.010Z,38.31
2023-03-11T23:51:24.492Z,38.41
2023-03-11T23:53:50.871Z,38.32
2023-03-11T23:56:18.089Z,38.28
2023-03-11T23:58:44.623Z,38.27
